Terminal Aerodrome Forecast
Issued by NWS

Current Version | Previous Version | Text Only | Print | Product List | Glossary On
Versions: 1 2 3 4 5 6 7 8 9 10 11 12 13 14 15
645
FTUS42 TJSJ 261721
TAFISX
TAF
TISX 261721Z 2618/2718 11015G21KT P6SM VCSH SCT025 SCT035 SCT050
     FM262300 07008KT P6SM SCT025 SCT040
     FM271300 11013KT P6SM SCT025=

USA.gov is the U.S. government's official web portal to all federal, state and local government web resources and services.